sensor_id;sensor_type;location;lat;lon;timestamp;pressure;altitude;pressure_sealevel;temperature;humidity
51227;BME280;42714;48.260;10.980;2023-08-06T00:00:17;964.0;;;14.7;100.0
51227;BME280;42714;48.260;10.980;2023-08-06T00:05:18;963.9;;;14.6;100.0
51227;BME280;42714;48.260;10.980;2023-08-06T00:10:19;964.0;;;14.6;100.0
51227;BME280;42714;48.260;10.980;2023-08-06T00:15:20;963.9;;;14.6;100.0
51227;BME280;42714;48.260;10.980;2023-08-06T00:20:21;963.9;;;14.5;100.0
51227;BME280;42714;48.260;10.980;2023-08-06T00:25:22;963.9;;;14.5;100.0
51227;BME280;42714;48.260;10.980;2023-08-06T00:30:23;963.8;;;14.5;100.0
51227;BME280;42714;48.260;10.980;2023-08-06T00:35:24;963.7;;;14.4;100.0
51227;BME280;42714;48.260;10.980;2023-08-06T00:40:25;963.8;;;14.4;100.0
51227;BME280;42714;48.260;10.980;2023-08-06T00:45:26;963.8;;;14.4;100.0
51227;BME280;42714;48.260;10.980;2023-08-06T00:50:27;963.7;;;14.4;100.0
51227;BME280;42714;48.260;10.980;2023-08-06T00:55:28;963.7;;;14.5;100.0
51227;BME280;42714;48.260;10.980;2023-08-06T01:00:29;963.7;;;14.4;100.0
51227;BME280;42714;48.260;10.980;2023-08-06T01:05:29;963.7;;;14.4;100.0
51227;BME280;42714;48.260;10.980;2023-08-06T01:10:43;963.7;;;14.3;100.0
51227;BME280;42714;48.260;10.980;2023-08-06T01:15:32;963.5;;;14.3;100.0
51227;BME280;42714;48.260;10.980;2023-08-06T01:20:32;963.5;;;14.3;100.0
51227;BME280;42714;48.260;10.980;2023-08-06T01:25:34;963.5;;;14.2;100.0
51227;BME280;42714;48.260;10.980;2023-08-06T01:30:34;963.5;;;14.2;100.0
51227;BME280;42714;48.260;10.980;2023-08-06T01:35:35;963.5;;;14.2;100.0
51227;BME280;42714;48.260;10.980;2023-08-06T01:40:36;963.5;;;14.1;100.0
51227;BME280;42714;48.260;10.980;2023-08-06T01:45:37;963.4;;;14.1;100.0
51227;BME280;42714;48.260;10.980;2023-08-06T01:50:38;963.4;;;14.1;100.0
51227;BME280;42714;48.260;10.980;2023-08-06T01:55:39;963.3;;;14.0;100.0
51227;BME280;42714;48.260;10.980;2023-08-06T02:00:40;963.2;;;13.9;100.0
51227;BME280;42714;48.260;10.980;2023-08-06T02:05:41;963.2;;;13.9;100.0
51227;BME280;42714;48.260;10.980;2023-08-06T02:10:42;963.2;;;13.8;100.0
51227;BME280;42714;48.260;10.980;2023-08-06T02:15:43;963.1;;;13.8;100.0
51227;BME280;42714;48.260;10.980;2023-08-06T02:20:54;962.9;;;13.8;100.0
51227;BME280;42714;48.260;10.980;2023-08-06T02:25:45;963.0;;;13.7;100.0
51227;BME280;42714;48.260;10.980;2023-08-06T02:35:47;963.1;;;13.8;100.0
51227;BME280;42714;48.260;10.980;2023-08-06T02:40:48;963.1;;;13.8;100.0
51227;BME280;42714;48.260;10.980;2023-08-06T02:45:49;963.1;;;13.8;100.0
51227;BME280;42714;48.260;10.980;2023-08-06T02:50:50;963.0;;;13.8;100.0
51227;BME280;42714;48.260;10.980;2023-08-06T02:55:51;963.0;;;13.7;100.0
51227;BME280;42714;48.260;10.980;2023-08-06T03:05:54;963.0;;;13.6;100.0
51227;BME280;42714;48.260;10.980;2023-08-06T03:10:54;962.9;;;13.6;100.0
51227;BME280;42714;48.260;10.980;2023-08-06T03:15:56;962.9;;;13.6;100.0
51227;BME280;42714;48.260;10.980;2023-08-06T03:20:56;962.7;;;13.5;100.0
51227;BME280;42714;48.260;10.980;2023-08-06T03:26:01;962.7;;;13.5;100.0
51227;BME280;42714;48.260;10.980;2023-08-06T03:31:01;962.7;;;13.5;100.0
51227;BME280;42714;48.260;10.980;2023-08-06T03:35:59;962.8;;;13.4;100.0
51227;BME280;42714;48.260;10.980;2023-08-06T03:41:00;962.7;;;13.4;100.0
51227;BME280;42714;48.260;10.980;2023-08-06T03:46:01;962.8;;;13.4;100.0
51227;BME280;42714;48.260;10.980;2023-08-06T03:51:02;962.8;;;13.4;100.0
51227;BME280;42714;48.260;10.980;2023-08-06T03:56:03;962.8;;;13.4;100.0
51227;BME280;42714;48.260;10.980;2023-08-06T04:01:04;962.8;;;13.3;100.0
51227;BME280;42714;48.260;10.980;2023-08-06T04:06:05;962.8;;;13.3;100.0
51227;BME280;42714;48.260;10.980;2023-08-06T04:11:06;962.8;;;13.3;100.0
51227;BME280;42714;48.260;10.980;2023-08-06T04:16:07;962.8;;;13.3;100.0
51227;BME280;42714;48.260;10.980;2023-08-06T04:21:08;962.8;;;13.3;100.0
51227;BME280;42714;48.260;10.980;2023-08-06T04:26:09;962.8;;;13.5;100.0
51227;BME280;42714;48.260;10.980;2023-08-06T04:31:10;962.8;;;13.5;100.0
51227;BME280;42714;48.260;10.980;2023-08-06T04:36:11;962.7;;;13.5;100.0
51227;BME280;42714;48.260;10.980;2023-08-06T04:41:12;962.7;;;13.5;100.0
51227;BME280;42714;48.260;10.980;2023-08-06T04:46:13;962.6;;;13.4;100.0
51227;BME280;42714;48.260;10.980;2023-08-06T04:51:14;962.6;;;13.4;100.0
51227;BME280;42714;48.260;10.980;2023-08-06T04:56:15;962.7;;;13.3;100.0
51227;BME280;42714;48.260;10.980;2023-08-06T05:01:16;962.7;;;13.3;100.0
51227;BME280;42714;48.260;10.980;2023-08-06T05:06:17;962.7;;;13.3;100.0
51227;BME280;42714;48.260;10.980;2023-08-06T05:11:18;962.6;;;13.4;100.0
51227;BME280;42714;48.260;10.980;2023-08-06T05:16:19;962.6;;;14.0;100.0
51227;BME280;42714;48.260;10.980;2023-08-06T05:21:20;962.5;;;15.2;100.0
51227;BME280;42714;48.260;10.980;2023-08-06T05:26:21;962.4;;;16.0;100.0
51227;BME280;42714;48.260;10.980;2023-08-06T05:31:22;962.3;;;16.9;100.0
51227;BME280;42714;48.260;10.980;2023-08-06T05:36:23;962.3;;;17.4;100.0
51227;BME280;42714;48.260;10.980;2023-08-06T05:41:24;962.2;;;16.8;100.0
51227;BME280;42714;48.260;10.980;2023-08-06T05:46:25;962.2;;;16.2;100.0
51227;BME280;42714;48.260;10.980;2023-08-06T05:51:26;962.2;;;15.7;100.0
51227;BME280;42714;48.260;10.980;2023-08-06T05:56:27;962.2;;;15.4;100.0
51227;BME280;42714;48.260;10.980;2023-08-06T06:01:28;962.2;;;16.1;100.0
51227;BME280;42714;48.260;10.980;2023-08-06T06:06:29;962.1;;;17.1;100.0
51227;BME280;42714;48.260;10.980;2023-08-06T06:11:30;962.1;;;17.7;100.0
51227;BME280;42714;48.260;10.980;2023-08-06T06:16:31;962.0;;;17.6;100.0
51227;BME280;42714;48.260;10.980;2023-08-06T06:21:32;962.0;;;17.5;100.0
51227;BME280;42714;48.260;10.980;2023-08-06T06:26:33;962.0;;;18.1;100.0
51227;BME280;42714;48.260;10.980;2023-08-06T06:31:34;962.0;;;19.2;100.0
51227;BME280;42714;48.260;10.980;2023-08-06T06:36:35;962.0;;;19.0;100.0
51227;BME280;42714;48.260;10.980;2023-08-06T06:41:36;962.2;;;17.7;100.0
51227;BME280;42714;48.260;10.980;2023-08-06T06:46:37;962.3;;;16.4;100.0
51227;BME280;42714;48.260;10.980;2023-08-06T06:51:38;962.3;;;15.6;100.0
51227;BME280;42714;48.260;10.980;2023-08-06T06:56:39;962.3;;;15.1;100.0
51227;BME280;42714;48.260;10.980;2023-08-06T07:01:40;962.3;;;14.9;100.0
51227;BME280;42714;48.260;10.980;2023-08-06T07:06:41;962.2;;;14.9;100.0
51227;BME280;42714;48.260;10.980;2023-08-06T07:11:42;962.2;;;15.2;100.0
51227;BME280;42714;48.260;10.980;2023-08-06T07:16:43;962.2;;;15.6;100.0
51227;BME280;42714;48.260;10.980;2023-08-06T07:21:44;962.1;;;15.9;100.0
51227;BME280;42714;48.260;10.980;2023-08-06T07:26:45;962.2;;;16.4;100.0
51227;BME280;42714;48.260;10.980;2023-08-06T07:31:46;962.2;;;17.1;100.0
51227;BME280;42714;48.260;10.980;2023-08-06T07:36:48;962.3;;;18.1;100.0
51227;BME280;42714;48.260;10.980;2023-08-06T07:41:50;962.2;;;19.0;100.0
51227;BME280;42714;48.260;10.980;2023-08-06T07:46:50;962.2;;;20.4;100.0
51227;BME280;42714;48.260;10.980;2023-08-06T07:51:51;962.2;;;21.6;100.0
51227;BME280;42714;48.260;10.980;2023-08-06T07:56:52;962.3;;;21.3;100.0
51227;BME280;42714;48.260;10.980;2023-08-06T08:01:54;962.3;;;20.5;100.0
51227;BME280;42714;48.260;10.980;2023-08-06T08:06:55;962.3;;;19.6;100.0
51227;BME280;42714;48.260;10.980;2023-08-06T08:11:56;962.3;;;19.0;100.0
51227;BME280;42714;48.260;10.980;2023-08-06T08:16:57;962.4;;;18.5;100.0
51227;BME280;42714;48.260;10.980;2023-08-06T08:21:58;962.4;;;18.3;100.0
51227;BME280;42714;48.260;10.980;2023-08-06T08:26:59;962.3;;;18.0;100.0
51227;BME280;42714;48.260;10.980;2023-08-06T08:32:00;962.3;;;17.7;100.0
51227;BME280;42714;48.260;10.980;2023-08-06T08:37:01;962.4;;;17.4;100.0
51227;BME280;42714;48.260;10.980;2023-08-06T08:42:02;962.4;;;17.1;100.0
51227;BME280;42714;48.260;10.980;2023-08-06T08:47:03;962.5;;;16.7;100.0
51227;BME280;42714;48.260;10.980;2023-08-06T08:52:04;962.5;;;16.2;100.0
51227;BME280;42714;48.260;10.980;2023-08-06T08:57:05;962.6;;;15.8;100.0
51227;BME280;42714;48.260;10.980;2023-08-06T09:02:06;962.7;;;15.4;100.0
51227;BME280;42714;48.260;10.980;2023-08-06T09:07:07;962.6;;;15.2;100.0
51227;BME280;42714;48.260;10.980;2023-08-06T09:12:11;962.7;;;15.0;100.0
51227;BME280;42714;48.260;10.980;2023-08-06T09:17:09;962.7;;;14.9;100.0
51227;BME280;42714;48.260;10.980;2023-08-06T09:22:11;962.7;;;15.2;100.0
51227;BME280;42714;48.260;10.980;2023-08-06T09:27:11;962.7;;;15.7;100.0
51227;BME280;42714;48.260;10.980;2023-08-06T09:32:12;962.7;;;15.9;100.0
51227;BME280;42714;48.260;10.980;2023-08-06T09:37:13;962.6;;;16.9;100.0
51227;BME280;42714;48.260;10.980;2023-08-06T09:42:14;962.7;;;18.3;100.0
51227;BME280;42714;48.260;10.980;2023-08-06T09:47:15;962.6;;;19.8;100.0
51227;BME280;42714;48.260;10.980;2023-08-06T09:52:16;962.6;;;19.5;100.0
51227;BME280;42714;48.260;10.980;2023-08-06T09:57:17;962.6;;;18.5;100.0
51227;BME280;42714;48.260;10.980;2023-08-06T10:02:18;962.6;;;18.0;100.0
51227;BME280;42714;48.260;10.980;2023-08-06T10:07:19;962.9;;;18.9;100.0
51227;BME280;42714;48.260;10.980;2023-08-06T10:12:20;962.8;;;19.7;100.0
51227;BME280;42714;48.260;10.980;2023-08-06T10:17:21;962.7;;;20.3;100.0
51227;BME280;42714;48.260;10.980;2023-08-06T10:22:22;962.6;;;21.2;100.0
51227;BME280;42714;48.260;10.980;2023-08-06T10:27:33;962.7;;;21.2;100.0
51227;BME280;42714;48.260;10.980;2023-08-06T10:32:41;962.7;;;22.0;100.0
51227;BME280;42714;48.260;10.980;2023-08-06T10:37:34;962.8;;;20.6;100.0
51227;BME280;42714;48.260;10.980;2023-08-06T10:42:26;962.8;;;19.8;100.0
51227;BME280;42714;48.260;10.980;2023-08-06T10:47:27;962.9;;;19.9;100.0
51227;BME280;42714;48.260;10.980;2023-08-06T10:52:28;962.9;;;19.9;100.0
51227;BME280;42714;48.260;10.980;2023-08-06T10:57:29;962.9;;;18.9;100.0
51227;BME280;42714;48.260;10.980;2023-08-06T11:02:33;962.9;;;18.5;100.0
51227;BME280;42714;48.260;10.980;2023-08-06T11:07:31;962.8;;;18.5;100.0
51227;BME280;42714;48.260;10.980;2023-08-06T11:12:32;962.8;;;19.9;100.0
51227;BME280;42714;48.260;10.980;2023-08-06T11:17:33;962.8;;;20.2;100.0
51227;BME280;42714;48.260;10.980;2023-08-06T11:22:35;962.7;;;21.3;100.0
51227;BME280;42714;48.260;10.980;2023-08-06T11:27:35;962.8;;;22.3;100.0
51227;BME280;42714;48.260;10.980;2023-08-06T11:32:44;962.9;;;21.0;100.0
51227;BME280;42714;48.260;10.980;2023-08-06T11:37:37;962.9;;;19.9;100.0
51227;BME280;42714;48.260;10.980;2023-08-06T11:42:38;962.8;;;19.6;100.0
51227;BME280;42714;48.260;10.980;2023-08-06T11:47:39;962.9;;;19.5;100.0
51227;BME280;42714;48.260;10.980;2023-08-06T11:52:40;962.8;;;19.6;100.0
51227;BME280;42714;48.260;10.980;2023-08-06T12:02:42;962.8;;;20.3;100.0
51227;BME280;42714;48.260;10.980;2023-08-06T12:07:44;963.0;;;19.5;100.0
51227;BME280;42714;48.260;10.980;2023-08-06T12:12:44;963.2;;;17.7;100.0
51227;BME280;42714;48.260;10.980;2023-08-06T12:17:45;963.3;;;16.9;100.0
51227;BME280;42714;48.260;10.980;2023-08-06T12:22:46;963.4;;;16.4;100.0
51227;BME280;42714;48.260;10.980;2023-08-06T12:27:47;963.4;;;16.2;100.0
51227;BME280;42714;48.260;10.980;2023-08-06T12:32:48;963.2;;;17.3;100.0
51227;BME280;42714;48.260;10.980;2023-08-06T12:37:49;963.3;;;16.6;100.0
51227;BME280;42714;48.260;10.980;2023-08-06T12:42:50;963.4;;;15.7;100.0
51227;BME280;42714;48.260;10.980;2023-08-06T12:47:51;963.5;;;15.3;100.0
51227;BME280;42714;48.260;10.980;2023-08-06T12:52:52;963.5;;;15.5;100.0
51227;BME280;42714;48.260;10.980;2023-08-06T12:57:53;963.5;;;15.7;100.0
51227;BME280;42714;48.260;10.980;2023-08-06T13:02:54;963.5;;;15.5;100.0
51227;BME280;42714;48.260;10.980;2023-08-06T13:07:55;963.5;;;15.5;100.0
51227;BME280;42714;48.260;10.980;2023-08-06T13:12:56;963.5;;;15.2;100.0
51227;BME280;42714;48.260;10.980;2023-08-06T13:17:57;963.6;;;15.0;100.0
51227;BME280;42714;48.260;10.980;2023-08-06T13:22:58;963.6;;;14.9;100.0
51227;BME280;42714;48.260;10.980;2023-08-06T13:27:59;963.7;;;15.0;100.0
51227;BME280;42714;48.260;10.980;2023-08-06T13:33:00;963.7;;;15.2;100.0
51227;BME280;42714;48.260;10.980;2023-08-06T13:38:01;963.8;;;15.2;100.0
51227;BME280;42714;48.260;10.980;2023-08-06T13:43:02;963.9;;;15.1;100.0
51227;BME280;42714;48.260;10.980;2023-08-06T13:48:03;964.1;;;15.1;100.0
51227;BME280;42714;48.260;10.980;2023-08-06T13:53:04;964.2;;;14.7;100.0
51227;BME280;42714;48.260;10.980;2023-08-06T13:58:05;964.2;;;14.4;100.0
51227;BME280;42714;48.260;10.980;2023-08-06T14:03:06;964.0;;;14.1;100.0
51227;BME280;42714;48.260;10.980;2023-08-06T14:08:07;964.1;;;14.1;100.0
51227;BME280;42714;48.260;10.980;2023-08-06T14:13:08;964.1;;;14.2;100.0
51227;BME280;42714;48.260;10.980;2023-08-06T14:18:09;964.2;;;14.4;100.0
51227;BME280;42714;48.260;10.980;2023-08-06T14:23:10;964.3;;;14.4;100.0
51227;BME280;42714;48.260;10.980;2023-08-06T14:28:11;964.3;;;14.4;100.0
51227;BME280;42714;48.260;10.980;2023-08-06T14:33:12;964.4;;;14.7;100.0
51227;BME280;42714;48.260;10.980;2023-08-06T14:38:13;964.4;;;15.1;100.0
51227;BME280;42714;48.260;10.980;2023-08-06T14:43:14;964.4;;;15.6;100.0
51227;BME280;42714;48.260;10.980;2023-08-06T14:48:15;964.5;;;16.5;100.0
51227;BME280;42714;48.260;10.980;2023-08-06T14:53:16;964.5;;;17.0;100.0
51227;BME280;42714;48.260;10.980;2023-08-06T14:58:17;964.6;;;17.0;100.0
51227;BME280;42714;48.260;10.980;2023-08-06T15:03:18;964.6;;;16.6;100.0
51227;BME280;42714;48.260;10.980;2023-08-06T15:08:19;964.6;;;16.0;100.0
51227;BME280;42714;48.260;10.980;2023-08-06T15:13:20;964.7;;;15.7;100.0
51227;BME280;42714;48.260;10.980;2023-08-06T15:18:21;964.9;;;15.2;100.0
51227;BME280;42714;48.260;10.980;2023-08-06T15:23:22;964.9;;;14.7;100.0
51227;BME280;42714;48.260;10.980;2023-08-06T15:28:23;965.1;;;14.6;100.0
51227;BME280;42714;48.260;10.980;2023-08-06T15:33:24;965.2;;;14.7;100.0
51227;BME280;42714;48.260;10.980;2023-08-06T15:38:25;965.1;;;14.8;100.0
51227;BME280;42714;48.260;10.980;2023-08-06T15:43:26;965.1;;;15.1;100.0
51227;BME280;42714;48.260;10.980;2023-08-06T15:48:27;965.1;;;15.4;100.0
51227;BME280;42714;48.260;10.980;2023-08-06T15:53:28;965.0;;;15.5;100.0
51227;BME280;42714;48.260;10.980;2023-08-06T15:58:29;965.1;;;15.4;100.0
51227;BME280;42714;48.260;10.980;2023-08-06T16:03:30;965.1;;;15.1;100.0
51227;BME280;42714;48.260;10.980;2023-08-06T16:08:31;965.1;;;15.2;100.0
51227;BME280;42714;48.260;10.980;2023-08-06T16:13:32;965.2;;;15.3;100.0
51227;BME280;42714;48.260;10.980;2023-08-06T16:18:33;965.2;;;15.3;100.0
51227;BME280;42714;48.260;10.980;2023-08-06T16:23:34;965.2;;;14.9;100.0
51227;BME280;42714;48.260;10.980;2023-08-06T16:28:35;965.3;;;14.8;100.0
51227;BME280;42714;48.260;10.980;2023-08-06T16:33:36;965.4;;;14.9;100.0
51227;BME280;42714;48.260;10.980;2023-08-06T16:38:37;965.4;;;14.8;100.0
51227;BME280;42714;48.260;10.980;2023-08-06T16:43:38;965.5;;;14.8;100.0
51227;BME280;42714;48.260;10.980;2023-08-06T16:48:39;965.5;;;14.6;100.0
51227;BME280;42714;48.260;10.980;2023-08-06T16:53:40;965.6;;;14.6;100.0
51227;BME280;42714;48.260;10.980;2023-08-06T16:58:41;965.8;;;14.5;100.0
51227;BME280;42714;48.260;10.980;2023-08-06T17:03:42;965.9;;;14.3;100.0
51227;BME280;42714;48.260;10.980;2023-08-06T17:08:43;966.0;;;14.2;100.0
51227;BME280;42714;48.260;10.980;2023-08-06T17:13:44;965.9;;;14.1;100.0
51227;BME280;42714;48.260;10.980;2023-08-06T17:18:45;965.9;;;14.1;100.0
51227;BME280;42714;48.260;10.980;2023-08-06T17:23:46;966.0;;;14.1;100.0
51227;BME280;42714;48.260;10.980;2023-08-06T17:28:47;966.0;;;14.0;100.0
51227;BME280;42714;48.260;10.980;2023-08-06T17:33:48;966.0;;;14.0;100.0
51227;BME280;42714;48.260;10.980;2023-08-06T17:38:49;966.0;;;13.8;100.0
51227;BME280;42714;48.260;10.980;2023-08-06T17:43:50;966.1;;;13.8;100.0
51227;BME280;42714;48.260;10.980;2023-08-06T17:48:51;966.1;;;13.8;100.0
51227;BME280;42714;48.260;10.980;2023-08-06T17:53:52;966.2;;;13.8;100.0
51227;BME280;42714;48.260;10.980;2023-08-06T17:58:53;966.3;;;13.8;100.0
51227;BME280;42714;48.260;10.980;2023-08-06T18:03:54;966.3;;;13.7;100.0
51227;BME280;42714;48.260;10.980;2023-08-06T18:08:55;966.4;;;13.7;100.0
51227;BME280;42714;48.260;10.980;2023-08-06T18:13:56;966.4;;;13.8;100.0
51227;BME280;42714;48.260;10.980;2023-08-06T18:18:57;966.4;;;13.9;100.0
51227;BME280;42714;48.260;10.980;2023-08-06T18:23:58;966.6;;;13.8;100.0
51227;BME280;42714;48.260;10.980;2023-08-06T18:28:59;966.6;;;13.8;100.0
51227;BME280;42714;48.260;10.980;2023-08-06T18:34:00;966.7;;;13.8;100.0
51227;BME280;42714;48.260;10.980;2023-08-06T18:39:01;966.7;;;13.8;100.0
51227;BME280;42714;48.260;10.980;2023-08-06T18:44:02;966.6;;;13.8;100.0
51227;BME280;42714;48.260;10.980;2023-08-06T18:49:03;966.7;;;13.9;100.0
51227;BME280;42714;48.260;10.980;2023-08-06T18:54:04;966.7;;;13.8;100.0
51227;BME280;42714;48.260;10.980;2023-08-06T18:59:05;966.8;;;13.8;100.0
51227;BME280;42714;48.260;10.980;2023-08-06T19:04:06;966.9;;;13.8;100.0
51227;BME280;42714;48.260;10.980;2023-08-06T19:09:07;967.1;;;13.8;100.0
51227;BME280;42714;48.260;10.980;2023-08-06T19:14:08;967.0;;;13.7;100.0
51227;BME280;42714;48.260;10.980;2023-08-06T19:19:09;967.1;;;13.6;100.0
51227;BME280;42714;48.260;10.980;2023-08-06T19:24:10;967.1;;;13.7;100.0
51227;BME280;42714;48.260;10.980;2023-08-06T19:29:11;967.2;;;13.6;100.0
51227;BME280;42714;48.260;10.980;2023-08-06T19:34:12;967.2;;;13.5;100.0
51227;BME280;42714;48.260;10.980;2023-08-06T19:39:13;967.1;;;13.4;100.0
51227;BME280;42714;48.260;10.980;2023-08-06T19:44:14;967.2;;;13.3;100.0
51227;BME280;42714;48.260;10.980;2023-08-06T19:49:15;967.1;;;13.2;100.0
51227;BME280;42714;48.260;10.980;2023-08-06T19:54:16;967.2;;;13.1;100.0
51227;BME280;42714;48.260;10.980;2023-08-06T19:59:17;967.2;;;13.1;100.0
51227;BME280;42714;48.260;10.980;2023-08-06T20:04:18;967.2;;;13.0;100.0
51227;BME280;42714;48.260;10.980;2023-08-06T20:09:19;967.2;;;13.0;100.0
51227;BME280;42714;48.260;10.980;2023-08-06T20:14:20;967.2;;;13.0;100.0
51227;BME280;42714;48.260;10.980;2023-08-06T20:19:21;967.2;;;12.9;100.0
51227;BME280;42714;48.260;10.980;2023-08-06T20:24:22;967.2;;;12.9;100.0
51227;BME280;42714;48.260;10.980;2023-08-06T20:29:23;967.2;;;12.8;100.0
51227;BME280;42714;48.260;10.980;2023-08-06T20:34:24;967.2;;;12.7;100.0
51227;BME280;42714;48.260;10.980;2023-08-06T20:39:25;967.4;;;12.6;100.0
51227;BME280;42714;48.260;10.980;2023-08-06T20:44:26;967.4;;;12.6;100.0
51227;BME280;42714;48.260;10.980;2023-08-06T20:49:27;967.4;;;12.6;100.0
51227;BME280;42714;48.260;10.980;2023-08-06T20:54:28;967.4;;;12.8;100.0
51227;BME280;42714;48.260;10.980;2023-08-06T20:59:29;967.4;;;12.8;100.0
51227;BME280;42714;48.260;10.980;2023-08-06T21:04:30;967.4;;;12.8;100.0
51227;BME280;42714;48.260;10.980;2023-08-06T21:09:31;967.4;;;12.8;100.0
51227;BME280;42714;48.260;10.980;2023-08-06T21:14:32;967.4;;;12.7;100.0
51227;BME280;42714;48.260;10.980;2023-08-06T21:19:33;967.4;;;12.6;100.0
51227;BME280;42714;48.260;10.980;2023-08-06T21:24:34;967.5;;;12.5;100.0
51227;BME280;42714;48.260;10.980;2023-08-06T21:29:35;967.5;;;12.4;100.0
51227;BME280;42714;48.260;10.980;2023-08-06T21:34:36;967.5;;;12.4;100.0
51227;BME280;42714;48.260;10.980;2023-08-06T21:39:37;967.6;;;12.4;100.0
51227;BME280;42714;48.260;10.980;2023-08-06T21:44:38;967.6;;;12.5;100.0
51227;BME280;42714;48.260;10.980;2023-08-06T21:49:39;967.6;;;12.5;100.0
51227;BME280;42714;48.260;10.980;2023-08-06T21:54:40;967.6;;;12.6;100.0
51227;BME280;42714;48.260;10.980;2023-08-06T21:59:41;967.6;;;12.6;100.0
51227;BME280;42714;48.260;10.980;2023-08-06T22:04:42;967.6;;;12.6;100.0
51227;BME280;42714;48.260;10.980;2023-08-06T22:09:43;967.6;;;12.6;100.0
51227;BME280;42714;48.260;10.980;2023-08-06T22:14:45;967.6;;;12.5;100.0
51227;BME280;42714;48.260;10.980;2023-08-06T22:19:45;967.5;;;12.5;100.0
51227;BME280;42714;48.260;10.980;2023-08-06T22:24:46;967.6;;;12.6;100.0
51227;BME280;42714;48.260;10.980;2023-08-06T22:29:47;967.4;;;12.6;100.0
51227;BME280;42714;48.260;10.980;2023-08-06T22:34:48;967.4;;;12.6;100.0
51227;BME280;42714;48.260;10.980;2023-08-06T22:39:49;967.4;;;12.6;100.0
51227;BME280;42714;48.260;10.980;2023-08-06T22:44:50;967.3;;;12.7;100.0
51227;BME280;42714;48.260;10.980;2023-08-06T22:49:51;967.3;;;12.7;100.0
51227;BME280;42714;48.260;10.980;2023-08-06T22:54:52;967.3;;;12.7;100.0
51227;BME280;42714;48.260;10.980;2023-08-06T22:59:54;967.3;;;12.8;100.0
51227;BME280;42714;48.260;10.980;2023-08-06T23:04:54;967.2;;;12.7;100.0
51227;BME280;42714;48.260;10.980;2023-08-06T23:09:55;967.3;;;12.7;100.0
51227;BME280;42714;48.260;10.980;2023-08-06T23:14:56;967.3;;;12.7;100.0
51227;BME280;42714;48.260;10.980;2023-08-06T23:19:57;967.3;;;12.7;100.0
51227;BME280;42714;48.260;10.980;2023-08-06T23:24:58;967.4;;;12.6;100.0
51227;BME280;42714;48.260;10.980;2023-08-06T23:29:59;967.4;;;12.5;100.0
51227;BME280;42714;48.260;10.980;2023-08-06T23:35:01;967.5;;;12.4;100.0
51227;BME280;42714;48.260;10.980;2023-08-06T23:40:01;967.5;;;12.2;100.0
51227;BME280;42714;48.260;10.980;2023-08-06T23:45:03;967.6;;;12.1;100.0
51227;BME280;42714;48.260;10.980;2023-08-06T23:55:04;967.6;;;11.9;100.0
